sensor_id;sensor_type;location;lat;lon;timestamp;pressure;altitude;pressure_sealevel;temperature;humidity
22649;BME280;11491;41.942;24.220;2024-01-07T00:01:59;88480.03;;;8.39;82.96
22649;BME280;11491;41.942;24.220;2024-01-07T00:04:27;88471.69;;;8.45;82.48
22649;BME280;11491;41.942;24.220;2024-01-07T00:06:54;88489.97;;;8.43;81.59
22649;BME280;11491;41.942;24.220;2024-01-07T00:09:20;88489.25;;;8.49;81.45
22649;BME280;11491;41.942;24.220;2024-01-07T00:11:47;88479.31;;;8.43;83.15
22649;BME280;11491;41.942;24.220;2024-01-07T00:14:15;88475.19;;;8.49;82.72
22649;BME280;11491;41.942;24.220;2024-01-07T00:16:42;88472.50;;;8.45;81.22
22649;BME280;11491;41.942;24.220;2024-01-07T00:19:09;88485.50;;;8.54;82.17
22649;BME280;11491;41.942;24.220;2024-01-07T00:21:37;88498.03;;;8.50;84.35
22649;BME280;11491;41.942;24.220;2024-01-07T00:24:04;88498.25;;;8.37;84.26
22649;BME280;11491;41.942;24.220;2024-01-07T00:26:31;88482.97;;;8.34;84.24
22649;BME280;11491;41.942;24.220;2024-01-07T00:28:57;88470.19;;;8.44;83.43
22649;BME280;11491;41.942;24.220;2024-01-07T00:31:24;88467.00;;;8.34;84.05
22649;BME280;11491;41.942;24.220;2024-01-07T00:33:51;88462.00;;;8.29;84.27
22649;BME280;11491;41.942;24.220;2024-01-07T00:36:17;88456.47;;;8.41;81.74
22649;BME280;11491;41.942;24.220;2024-01-07T00:38:45;88447.28;;;8.39;82.62
22649;BME280;11491;41.942;24.220;2024-01-07T00:41:12;88440.47;;;8.41;83.53
22649;BME280;11491;41.942;24.220;2024-01-07T00:43:39;88438.22;;;8.44;82.34
22649;BME280;11491;41.942;24.220;2024-01-07T00:46:06;88414.66;;;8.46;84.35
22649;BME280;11491;41.942;24.220;2024-01-07T00:48:33;88417.69;;;8.44;82.45
22649;BME280;11491;41.942;24.220;2024-01-07T00:51:00;88407.78;;;8.45;83.61
22649;BME280;11491;41.942;24.220;2024-01-07T00:53:27;88415.41;;;8.43;81.54
22649;BME280;11491;41.942;24.220;2024-01-07T00:55:55;88405.88;;;8.41;82.33
22649;BME280;11491;41.942;24.220;2024-01-07T00:58:22;88402.47;;;8.45;83.44
22649;BME280;11491;41.942;24.220;2024-01-07T01:00:48;88373.38;;;8.25;82.66
22649;BME280;11491;41.942;24.220;2024-01-07T01:03:15;88387.06;;;8.27;82.76
22649;BME280;11491;41.942;24.220;2024-01-07T01:05:42;88355.16;;;8.31;80.11
22649;BME280;11491;41.942;24.220;2024-01-07T01:08:09;88368.22;;;8.43;80.60
22649;BME280;11491;41.942;24.220;2024-01-07T01:10:35;88337.84;;;8.51;79.82
22649;BME280;11491;41.942;24.220;2024-01-07T01:13:04;88353.09;;;8.54;82.15
22649;BME280;11491;41.942;24.220;2024-01-07T01:15:30;88330.91;;;8.39;78.55
22649;BME280;11491;41.942;24.220;2024-01-07T01:17:57;88350.75;;;8.46;78.97
22649;BME280;11491;41.942;24.220;2024-01-07T01:20:24;88338.94;;;8.47;78.28
22649;BME280;11491;41.942;24.220;2024-01-07T01:22:51;88311.97;;;8.52;78.71
22649;BME280;11491;41.942;24.220;2024-01-07T01:25:18;88311.28;;;8.62;79.21
22649;BME280;11491;41.942;24.220;2024-01-07T01:27:44;88301.38;;;8.55;80.12
22649;BME280;11491;41.942;24.220;2024-01-07T01:30:13;88266.19;;;8.35;82.51
22649;BME280;11491;41.942;24.220;2024-01-07T01:32:40;88257.78;;;8.33;83.73
22649;BME280;11491;41.942;24.220;2024-01-07T01:35:07;88269.97;;;8.34;84.54
22649;BME280;11491;41.942;24.220;2024-01-07T01:37:34;88260.47;;;8.37;81.99
22649;BME280;11491;41.942;24.220;2024-01-07T01:40:01;88256.28;;;8.32;83.29
22649;BME280;11491;41.942;24.220;2024-01-07T01:42:30;88246.00;;;8.34;83.50
22649;BME280;11491;41.942;24.220;2024-01-07T01:44:57;88237.97;;;8.27;84.38
22649;BME280;11491;41.942;24.220;2024-01-07T01:47:28;88222.03;;;8.34;82.58
22649;BME280;11491;41.942;24.220;2024-01-07T01:49:55;88210.66;;;8.37;82.75
22649;BME280;11491;41.942;24.220;2024-01-07T01:52:22;88217.50;;;8.35;82.86
22649;BME280;11491;41.942;24.220;2024-01-07T01:54:49;88230.38;;;8.29;83.30
22649;BME280;11491;41.942;24.220;2024-01-07T01:57:19;88219.72;;;8.26;84.17
22649;BME280;11491;41.942;24.220;2024-01-07T01:59:48;88227.28;;;8.20;84.21
22649;BME280;11491;41.942;24.220;2024-01-07T02:02:15;88232.63;;;8.27;83.55
22649;BME280;11491;41.942;24.220;2024-01-07T02:04:43;88237.25;;;8.30;81.84
22649;BME280;11491;41.942;24.220;2024-01-07T02:07:10;88218.16;;;8.25;81.89
22649;BME280;11491;41.942;24.220;2024-01-07T02:09:37;88225.09;;;8.33;82.32
22649;BME280;11491;41.942;24.220;2024-01-07T02:12:06;88215.19;;;8.30;84.27
22649;BME280;11491;41.942;24.220;2024-01-07T02:14:37;88215.19;;;8.33;84.98
22649;BME280;11491;41.942;24.220;2024-01-07T02:17:04;88209.06;;;8.29;85.04
22649;BME280;11491;41.942;24.220;2024-01-07T02:19:30;88239.50;;;8.28;84.35
22649;BME280;11491;41.942;24.220;2024-01-07T02:21:58;88230.31;;;8.22;86.03
22649;BME280;11491;41.942;24.220;2024-01-07T02:24:26;88225.72;;;8.19;87.60
22649;BME280;11491;41.942;24.220;2024-01-07T02:26:54;88223.47;;;8.17;88.00
22649;BME280;11491;41.942;24.220;2024-01-07T02:29:21;88232.09;;;8.04;88.71
22649;BME280;11491;41.942;24.220;2024-01-07T02:31:48;88221.09;;;8.09;88.29
22649;BME280;11491;41.942;24.220;2024-01-07T02:34:15;88258.28;;;7.98;88.60
22649;BME280;11491;41.942;24.220;2024-01-07T02:36:41;88254.78;;;7.90;88.10
22649;BME280;11491;41.942;24.220;2024-01-07T02:39:08;88246.81;;;7.90;89.97
22649;BME280;11491;41.942;24.220;2024-01-07T02:41:36;88263.47;;;7.84;89.70
22649;BME280;11491;41.942;24.220;2024-01-07T02:44:03;88273.19;;;7.69;88.21
22649;BME280;11491;41.942;24.220;2024-01-07T02:46:30;88273.59;;;7.71;87.37
22649;BME280;11491;41.942;24.220;2024-01-07T02:48:57;88287.06;;;7.51;87.95
22649;BME280;11491;41.942;24.220;2024-01-07T02:51:24;88299.59;;;7.51;87.69
22649;BME280;11491;41.942;24.220;2024-01-07T02:53:51;88298.69;;;7.36;86.93
22649;BME280;11491;41.942;24.220;2024-01-07T02:56:17;88299.84;;;7.08;85.99
22649;BME280;11491;41.942;24.220;2024-01-07T02:58:45;88310.66;;;6.93;87.05
22649;BME280;11491;41.942;24.220;2024-01-07T03:01:12;88291.38;;;6.99;87.30
22649;BME280;11491;41.942;24.220;2024-01-07T03:03:39;88303.44;;;6.93;88.49
22649;BME280;11491;41.942;24.220;2024-01-07T03:06:06;88296.97;;;6.64;85.89
22649;BME280;11491;41.942;24.220;2024-01-07T03:08:33;88282.31;;;6.47;88.35
22649;BME280;11491;41.942;24.220;2024-01-07T03:11:04;88269.25;;;6.35;85.74
22649;BME280;11491;41.942;24.220;2024-01-07T03:13:31;88253.00;;;6.13;86.02
22649;BME280;11491;41.942;24.220;2024-01-07T03:16:00;88244.53;;;6.04;87.55
22649;BME280;11491;41.942;24.220;2024-01-07T03:18:27;88230.75;;;5.95;86.99
22649;BME280;11491;41.942;24.220;2024-01-07T03:20:54;88221.94;;;5.91;88.12
22649;BME280;11491;41.942;24.220;2024-01-07T03:23:20;88205.72;;;5.96;87.50
22649;BME280;11491;41.942;24.220;2024-01-07T03:25:47;88200.50;;;5.99;86.69
22649;BME280;11491;41.942;24.220;2024-01-07T03:28:14;88193.59;;;5.95;87.78
22649;BME280;11491;41.942;24.220;2024-01-07T03:30:41;88190.34;;;6.05;88.09
22649;BME280;11491;41.942;24.220;2024-01-07T03:33:09;88181.00;;;6.15;88.35
22649;BME280;11491;41.942;24.220;2024-01-07T03:35:35;88171.44;;;6.07;88.46
22649;BME280;11491;41.942;24.220;2024-01-07T03:38:02;88158.00;;;5.96;86.15
22649;BME280;11491;41.942;24.220;2024-01-07T03:40:29;88152.16;;;5.87;86.74
22649;BME280;11491;41.942;24.220;2024-01-07T03:42:56;88146.03;;;5.82;86.25
22649;BME280;11491;41.942;24.220;2024-01-07T03:45:23;88135.63;;;5.70;86.58
22649;BME280;11491;41.942;24.220;2024-01-07T03:47:49;88144.22;;;5.64;87.35
22649;BME280;11491;41.942;24.220;2024-01-07T03:50:18;88146.41;;;5.58;85.81
22649;BME280;11491;41.942;24.220;2024-01-07T03:52:44;88142.28;;;5.60;86.76
22649;BME280;11491;41.942;24.220;2024-01-07T03:55:11;88148.78;;;5.63;88.91
22649;BME280;11491;41.942;24.220;2024-01-07T03:57:38;88153.66;;;5.61;90.21
22649;BME280;11491;41.942;24.220;2024-01-07T04:00:06;88141.47;;;5.56;86.41
22649;BME280;11491;41.942;24.220;2024-01-07T04:02:35;88151.25;;;5.52;88.16
22649;BME280;11491;41.942;24.220;2024-01-07T04:05:01;88154.38;;;5.58;90.47
22649;BME280;11491;41.942;24.220;2024-01-07T04:07:29;88166.59;;;5.66;90.99
22649;BME280;11491;41.942;24.220;2024-01-07T04:09:56;88164.47;;;5.75;90.53
22649;BME280;11491;41.942;24.220;2024-01-07T04:12:23;88156.22;;;5.80;89.90
22649;BME280;11491;41.942;24.220;2024-01-07T04:14:50;88159.94;;;5.76;87.70
22649;BME280;11491;41.942;24.220;2024-01-07T04:17:16;88141.34;;;5.72;84.02
22649;BME280;11491;41.942;24.220;2024-01-07T04:19:43;88119.09;;;5.80;83.65
22649;BME280;11491;41.942;24.220;2024-01-07T04:22:10;88119.34;;;5.95;84.76
22649;BME280;11491;41.942;24.220;2024-01-07T04:24:40;88099.63;;;5.96;87.19
22649;BME280;11491;41.942;24.220;2024-01-07T04:27:07;88098.94;;;5.99;87.53
22649;BME280;11491;41.942;24.220;2024-01-07T04:29:34;88125.50;;;6.02;86.73
22649;BME280;11491;41.942;24.220;2024-01-07T04:32:00;88138.19;;;5.90;86.66
22649;BME280;11491;41.942;24.220;2024-01-07T04:34:27;88155.00;;;5.74;88.70
22649;BME280;11491;41.942;24.220;2024-01-07T04:36:54;88190.78;;;5.84;88.77
22649;BME280;11491;41.942;24.220;2024-01-07T04:39:20;88195.59;;;5.78;89.30
22649;BME280;11491;41.942;24.220;2024-01-07T04:41:48;88200.44;;;5.50;85.60
22649;BME280;11491;41.942;24.220;2024-01-07T04:44:15;88195.47;;;5.71;83.74
22649;BME280;11491;41.942;24.220;2024-01-07T04:46:42;88197.84;;;5.76;82.76
22649;BME280;11491;41.942;24.220;2024-01-07T04:49:08;88192.72;;;5.87;82.09
22649;BME280;11491;41.942;24.220;2024-01-07T04:51:35;88179.72;;;6.05;84.00
22649;BME280;11491;41.942;24.220;2024-01-07T04:54:03;88181.03;;;6.18;84.24
22649;BME280;11491;41.942;24.220;2024-01-07T04:56:31;88173.59;;;6.28;83.92
22649;BME280;11491;41.942;24.220;2024-01-07T04:58:59;88175.75;;;6.18;85.98
22649;BME280;11491;41.942;24.220;2024-01-07T05:01:26;88183.31;;;6.16;86.06
22649;BME280;11491;41.942;24.220;2024-01-07T05:03:52;88182.69;;;5.77;85.86
22649;BME280;11491;41.942;24.220;2024-01-07T05:06:19;88177.56;;;5.88;86.71
22649;BME280;11491;41.942;24.220;2024-01-07T05:08:46;88180.50;;;5.82;87.73
22649;BME280;11491;41.942;24.220;2024-01-07T05:11:13;88175.50;;;5.77;86.83
22649;BME280;11491;41.942;24.220;2024-01-07T05:13:39;88169.69;;;5.68;84.81
22649;BME280;11491;41.942;24.220;2024-01-07T05:16:08;88167.22;;;5.56;83.07
22649;BME280;11491;41.942;24.220;2024-01-07T05:18:34;88167.50;;;5.51;82.57
22649;BME280;11491;41.942;24.220;2024-01-07T05:21:01;88158.03;;;5.50;83.18
22649;BME280;11491;41.942;24.220;2024-01-07T05:23:28;88146.38;;;5.31;82.68
22649;BME280;11491;41.942;24.220;2024-01-07T05:25:54;88143.97;;;5.23;82.45
22649;BME280;11491;41.942;24.220;2024-01-07T05:28:21;88138.72;;;5.26;83.77
22649;BME280;11491;41.942;24.220;2024-01-07T05:30:49;88137.38;;;5.13;83.36
22649;BME280;11491;41.942;24.220;2024-01-07T05:33:17;88146.84;;;5.14;82.80
22649;BME280;11491;41.942;24.220;2024-01-07T05:35:43;88141.53;;;5.14;83.06
22649;BME280;11491;41.942;24.220;2024-01-07T05:38:10;88158.72;;;5.01;83.46
22649;BME280;11491;41.942;24.220;2024-01-07T05:40:37;88146.59;;;5.00;82.70
22649;BME280;11491;41.942;24.220;2024-01-07T05:43:04;88136.22;;;5.14;84.23
22649;BME280;11491;41.942;24.220;2024-01-07T05:45:30;88136.94;;;5.11;82.73
22649;BME280;11491;41.942;24.220;2024-01-07T05:47:57;88175.44;;;5.05;83.16
22649;BME280;11491;41.942;24.220;2024-01-07T05:50:25;88168.56;;;5.00;83.85
22649;BME280;11491;41.942;24.220;2024-01-07T05:52:52;88170.16;;;5.05;82.70
22649;BME280;11491;41.942;24.220;2024-01-07T05:55:18;88161.50;;;5.08;82.95
22649;BME280;11491;41.942;24.220;2024-01-07T05:57:45;88175.44;;;5.05;82.86
22649;BME280;11491;41.942;24.220;2024-01-07T06:00:13;88164.84;;;5.05;82.17
22649;BME280;11491;41.942;24.220;2024-01-07T06:02:40;88162.34;;;5.12;81.92
22649;BME280;11491;41.942;24.220;2024-01-07T06:05:07;88182.94;;;5.22;82.33
22649;BME280;11491;41.942;24.220;2024-01-07T06:07:35;88167.56;;;5.31;82.80
22649;BME280;11491;41.942;24.220;2024-01-07T06:10:03;88179.41;;;5.37;81.93
22649;BME280;11491;41.942;24.220;2024-01-07T06:12:31;88170.91;;;5.51;80.51
22649;BME280;11491;41.942;24.220;2024-01-07T06:14:58;88185.34;;;5.54;80.83
22649;BME280;11491;41.942;24.220;2024-01-07T06:17:25;88186.78;;;5.48;79.89
22649;BME280;11491;41.942;24.220;2024-01-07T06:19:51;88195.16;;;5.50;79.63
22649;BME280;11491;41.942;24.220;2024-01-07T06:22:18;88206.00;;;5.64;80.45
22649;BME280;11491;41.942;24.220;2024-01-07T06:24:46;88200.09;;;5.74;81.24
22649;BME280;11491;41.942;24.220;2024-01-07T06:27:13;88197.25;;;5.87;80.93
22649;BME280;11491;41.942;24.220;2024-01-07T06:29:40;88198.16;;;5.94;81.13
22649;BME280;11491;41.942;24.220;2024-01-07T06:32:06;88203.50;;;5.98;78.65
22649;BME280;11491;41.942;24.220;2024-01-07T06:34:35;88203.50;;;5.98;78.44
22649;BME280;11491;41.942;24.220;2024-01-07T06:37:02;88209.22;;;6.00;77.96
22649;BME280;11491;41.942;24.220;2024-01-07T06:39:28;88210.53;;;6.13;78.82
22649;BME280;11491;41.942;24.220;2024-01-07T06:41:58;88206.03;;;6.14;78.93
22649;BME280;11491;41.942;24.220;2024-01-07T06:44:25;88214.94;;;6.02;78.20
22649;BME280;11491;41.942;24.220;2024-01-07T06:46:52;88224.50;;;6.07;79.29
22649;BME280;11491;41.942;24.220;2024-01-07T06:49:18;88219.28;;;5.91;78.05
22649;BME280;11491;41.942;24.220;2024-01-07T06:51:45;88211.88;;;6.00;77.11
22649;BME280;11491;41.942;24.220;2024-01-07T06:54:12;88200.53;;;6.03;78.91
22649;BME280;11491;41.942;24.220;2024-01-07T06:56:38;88196.28;;;6.21;79.13
22649;BME280;11491;41.942;24.220;2024-01-07T06:59:06;88192.38;;;6.15;79.35
22649;BME280;11491;41.942;24.220;2024-01-07T07:01:33;88196.06;;;6.07;77.49
22649;BME280;11491;41.942;24.220;2024-01-07T07:04:00;88191.47;;;6.04;78.24
22649;BME280;11491;41.942;24.220;2024-01-07T07:06:27;88195.19;;;5.99;77.45
22649;BME280;11491;41.942;24.220;2024-01-07T07:08:53;88188.50;;;6.09;78.78
22649;BME280;11491;41.942;24.220;2024-01-07T07:11:20;88196.88;;;6.11;77.20
22649;BME280;11491;41.942;24.220;2024-01-07T07:13:47;88207.09;;;6.09;78.06
22649;BME280;11491;41.942;24.220;2024-01-07T07:16:15;88216.69;;;6.17;78.33
22649;BME280;11491;41.942;24.220;2024-01-07T07:18:42;88210.34;;;6.25;78.08
22649;BME280;11491;41.942;24.220;2024-01-07T07:21:08;88214.44;;;6.19;77.00
22649;BME280;11491;41.942;24.220;2024-01-07T07:23:35;88217.50;;;6.21;76.47
22649;BME280;11491;41.942;24.220;2024-01-07T07:26:02;88220.03;;;6.41;77.02
22649;BME280;11491;41.942;24.220;2024-01-07T07:28:29;88219.50;;;6.58;76.05
22649;BME280;11491;41.942;24.220;2024-01-07T07:30:56;88215.88;;;6.70;74.72
22649;BME280;11491;41.942;24.220;2024-01-07T07:33:24;88204.06;;;6.98;74.31
22649;BME280;11491;41.942;24.220;2024-01-07T07:35:50;88204.97;;;7.12;74.90
22649;BME280;11491;41.942;24.220;2024-01-07T07:38:17;88215.28;;;7.18;72.39
22649;BME280;11491;41.942;24.220;2024-01-07T07:40:44;88217.09;;;7.10;73.07
22649;BME280;11491;41.942;24.220;2024-01-07T07:43:17;88208.84;;;7.19;73.07
22649;BME280;11491;41.942;24.220;2024-01-07T07:45:44;88205.28;;;7.41;73.29
22649;BME280;11491;41.942;24.220;2024-01-07T07:48:11;88206.75;;;7.35;72.79
22649;BME280;11491;41.942;24.220;2024-01-07T07:50:39;88203.91;;;7.54;72.03
22649;BME280;11491;41.942;24.220;2024-01-07T07:53:06;88212.28;;;7.57;71.11
22649;BME280;11491;41.942;24.220;2024-01-07T07:55:33;88220.25;;;7.57;71.24
22649;BME280;11491;41.942;24.220;2024-01-07T07:58:00;88216.06;;;7.55;71.46
22649;BME280;11491;41.942;24.220;2024-01-07T08:00:28;88219.19;;;7.65;70.75
22649;BME280;11491;41.942;24.220;2024-01-07T08:02:54;88211.59;;;7.67;70.96
22649;BME280;11491;41.942;24.220;2024-01-07T08:05:21;88213.94;;;7.72;72.03
22649;BME280;11491;41.942;24.220;2024-01-07T08:07:49;88198.28;;;8.08;71.26
22649;BME280;11491;41.942;24.220;2024-01-07T08:10:16;88207.00;;;8.53;69.20
22649;BME280;11491;41.942;24.220;2024-01-07T08:12:43;88201.28;;;9.35;66.81
22649;BME280;11491;41.942;24.220;2024-01-07T08:15:10;88209.81;;;10.01;65.48
22649;BME280;11491;41.942;24.220;2024-01-07T08:17:37;88205.66;;;10.36;63.41
22649;BME280;11491;41.942;24.220;2024-01-07T08:20:05;88193.34;;;10.78;62.34
22649;BME280;11491;41.942;24.220;2024-01-07T08:22:32;88198.69;;;10.92;61.85
22649;BME280;11491;41.942;24.220;2024-01-07T08:25:00;88188.72;;;11.11;58.14
22649;BME280;11491;41.942;24.220;2024-01-07T08:27:27;88187.94;;;11.07;60.81
22649;BME280;11491;41.942;24.220;2024-01-07T08:29:54;88189.59;;;11.67;57.37
22649;BME280;11491;41.942;24.220;2024-01-07T08:32:21;88194.28;;;11.49;56.33
22649;BME280;11491;41.942;24.220;2024-01-07T08:34:49;88192.63;;;10.67;57.22
22649;BME280;11491;41.942;24.220;2024-01-07T08:37:16;88182.31;;;9.76;61.29
22649;BME280;11491;41.942;24.220;2024-01-07T08:39:43;88186.88;;;9.64;61.90
22649;BME280;11491;41.942;24.220;2024-01-07T08:42:11;88175.31;;;9.17;64.05
22649;BME280;11491;41.942;24.220;2024-01-07T08:44:37;88170.94;;;8.73;65.51
22649;BME280;11491;41.942;24.220;2024-01-07T08:47:04;88169.06;;;8.77;66.82
22649;BME280;11491;41.942;24.220;2024-01-07T08:49:31;88153.00;;;8.63;68.59
22649;BME280;11491;41.942;24.220;2024-01-07T08:51:59;88144.41;;;8.25;67.61
22649;BME280;11491;41.942;24.220;2024-01-07T08:54:26;88138.66;;;8.19;68.93
22649;BME280;11491;41.942;24.220;2024-01-07T08:56:52;88137.44;;;8.10;69.56
22649;BME280;11491;41.942;24.220;2024-01-07T08:59:21;88134.34;;;8.01;70.42
22649;BME280;11491;41.942;24.220;2024-01-07T09:01:47;88141.25;;;8.05;70.89
22649;BME280;11491;41.942;24.220;2024-01-07T09:04:14;88137.59;;;7.76;70.50
22649;BME280;11491;41.942;24.220;2024-01-07T09:06:41;88145.59;;;7.76;71.37
22649;BME280;11491;41.942;24.220;2024-01-07T09:09:08;88154.03;;;7.89;72.57
22649;BME280;11491;41.942;24.220;2024-01-07T09:11:35;88141.94;;;7.95;70.98
22649;BME280;11491;41.942;24.220;2024-01-07T09:14:02;88149.88;;;8.47;70.89
22649;BME280;11491;41.942;24.220;2024-01-07T09:16:31;88151.75;;;9.30;69.03
22649;BME280;11491;41.942;24.220;2024-01-07T09:18:57;88141.88;;;10.45;63.96
22649;BME280;11491;41.942;24.220;2024-01-07T09:21:24;88131.69;;;11.35;60.10
22649;BME280;11491;41.942;24.220;2024-01-07T09:23:51;88128.53;;;10.52;59.73
22649;BME280;11491;41.942;24.220;2024-01-07T09:26:17;88145.25;;;9.27;64.39
22649;BME280;11491;41.942;24.220;2024-01-07T09:28:44;88137.88;;;8.89;67.19
22649;BME280;11491;41.942;24.220;2024-01-07T09:31:11;88148.50;;;8.81;68.10
22649;BME280;11491;41.942;24.220;2024-01-07T09:33:39;88143.50;;;8.69;68.10
22649;BME280;11491;41.942;24.220;2024-01-07T09:36:07;88137.16;;;8.99;67.49
22649;BME280;11491;41.942;24.220;2024-01-07T09:38:34;88147.09;;;9.02;66.81
22649;BME280;11491;41.942;24.220;2024-01-07T09:41:01;88140.31;;;9.44;65.88
22649;BME280;11491;41.942;24.220;2024-01-07T09:43:28;88138.03;;;9.32;65.26
22649;BME280;11491;41.942;24.220;2024-01-07T09:45:56;88128.03;;;9.00;66.86
22649;BME280;11491;41.942;24.220;2024-01-07T09:48:24;88119.63;;;8.91;66.49
22649;BME280;11491;41.942;24.220;2024-01-07T09:50:52;88109.00;;;9.05;67.23
22649;BME280;11491;41.942;24.220;2024-01-07T09:53:20;88107.38;;;8.68;66.71
22649;BME280;11491;41.942;24.220;2024-01-07T09:55:56;88106.75;;;9.18;66.56
22649;BME280;11491;41.942;24.220;2024-01-07T09:58:25;88091.56;;;10.19;62.44
22649;BME280;11491;41.942;24.220;2024-01-07T10:00:52;88085.03;;;11.36;60.07
22649;BME280;11491;41.942;24.220;2024-01-07T10:03:19;88088.16;;;12.36;57.93
22649;BME280;11491;41.942;24.220;2024-01-07T10:05:46;88087.72;;;12.79;51.98
22649;BME280;11491;41.942;24.220;2024-01-07T10:08:14;88079.81;;;12.99;56.37
22649;BME280;11491;41.942;24.220;2024-01-07T10:10:41;88079.63;;;13.47;50.76
22649;BME280;11491;41.942;24.220;2024-01-07T10:13:09;88087.94;;;12.57;52.77
22649;BME280;11491;41.942;24.220;2024-01-07T10:15:35;88083.00;;;11.55;57.20
22649;BME280;11491;41.942;24.220;2024-01-07T10:18:06;88070.88;;;11.99;55.78
22649;BME280;11491;41.942;24.220;2024-01-07T10:20:33;88084.59;;;12.84;53.78
22649;BME280;11491;41.942;24.220;2024-01-07T10:23:00;88072.28;;;13.21;51.74
22649;BME280;11491;41.942;24.220;2024-01-07T10:25:30;88075.31;;;12.92;53.21
22649;BME280;11491;41.942;24.220;2024-01-07T10:27:59;88076.22;;;13.12;52.86
22649;BME280;11491;41.942;24.220;2024-01-07T10:30:26;88079.78;;;13.64;51.04
22649;BME280;11491;41.942;24.220;2024-01-07T10:32:55;88080.94;;;12.29;54.80
22649;BME280;11491;41.942;24.220;2024-01-07T10:35:27;88075.41;;;12.47;56.28
22649;BME280;11491;41.942;24.220;2024-01-07T10:37:54;88075.44;;;11.42;58.29
22649;BME280;11491;41.942;24.220;2024-01-07T10:40:21;88071.78;;;11.74;58.74
22649;BME280;11491;41.942;24.220;2024-01-07T10:42:50;88069.69;;;12.45;58.44
22649;BME280;11491;41.942;24.220;2024-01-07T10:45:17;88076.34;;;12.67;56.80
22649;BME280;11491;41.942;24.220;2024-01-07T10:47:48;88061.75;;;11.93;56.76
22649;BME280;11491;41.942;24.220;2024-01-07T10:50:17;88064.38;;;11.40;60.69
22649;BME280;11491;41.942;24.220;2024-01-07T10:52:48;88061.25;;;11.53;60.25
22649;BME280;11491;41.942;24.220;2024-01-07T10:55:17;88059.94;;;11.12;60.97
22649;BME280;11491;41.942;24.220;2024-01-07T10:57:46;88057.31;;;11.09;63.67
22649;BME280;11491;41.942;24.220;2024-01-07T11:00:17;88055.59;;;11.96;60.03
22649;BME280;11491;41.942;24.220;2024-01-07T11:03:02;88048.94;;;13.18;57.56
22649;BME280;11491;41.942;24.220;2024-01-07T11:05:36;88047.81;;;13.73;54.63
22649;BME280;11491;41.942;24.220;2024-01-07T11:08:05;88029.94;;;13.63;55.26
22649;BME280;11491;41.942;24.220;2024-01-07T11:10:38;88043.75;;;13.34;53.66
22649;BME280;11491;41.942;24.220;2024-01-07T11:13:06;88035.47;;;13.21;53.00
22649;BME280;11491;41.942;24.220;2024-01-07T11:15:53;88023.13;;;13.58;53.42
22649;BME280;11491;41.942;24.220;2024-01-07T11:18:21;88029.06;;;13.96;55.27
22649;BME280;11491;41.942;24.220;2024-01-07T11:20:48;88027.75;;;14.52;51.19
22649;BME280;11491;41.942;24.220;2024-01-07T11:23:30;88035.13;;;14.24;52.06
22649;BME280;11491;41.942;24.220;2024-01-07T11:25:58;88036.19;;;14.07;51.16
22649;BME280;11491;41.942;24.220;2024-01-07T11:28:44;88039.91;;;14.13;51.61
22649;BME280;11491;41.942;24.220;2024-01-07T11:31:13;88040.50;;;14.00;52.18
22649;BME280;11491;41.942;24.220;2024-01-07T11:33:42;88049.47;;;13.67;53.85
22649;BME280;11491;41.942;24.220;2024-01-07T11:36:10;88043.84;;;13.57;52.29
22649;BME280;11491;41.942;24.220;2024-01-07T11:38:38;88052.09;;;13.12;54.36
22649;BME280;11491;41.942;24.220;2024-01-07T11:41:07;88043.84;;;12.27;55.09
22649;BME280;11491;41.942;24.220;2024-01-07T11:43:35;88048.59;;;11.57;57.22
22649;BME280;11491;41.942;24.220;2024-01-07T11:46:03;88050.22;;;10.70;60.96
22649;BME280;11491;41.942;24.220;2024-01-07T11:48:31;88051.88;;;10.24;62.62
22649;BME280;11491;41.942;24.220;2024-01-07T11:50:57;88056.50;;;9.99;64.01
22649;BME280;11491;41.942;24.220;2024-01-07T11:53:24;88061.09;;;9.62;65.70
22649;BME280;11491;41.942;24.220;2024-01-07T11:55:51;88061.81;;;9.20;67.08
22649;BME280;11491;41.942;24.220;2024-01-07T11:58:18;88064.81;;;9.04;68.61
22649;BME280;11491;41.942;24.220;2024-01-07T12:00:45;88051.88;;;8.95;69.28
22649;BME280;11491;41.942;24.220;2024-01-07T12:03:12;88067.13;;;8.95;69.60
22649;BME280;11491;41.942;24.220;2024-01-07T12:05:40;88050.38;;;9.05;70.45
22649;BME280;11491;41.942;24.220;2024-01-07T12:08:06;88035.94;;;9.27;68.97
22649;BME280;11491;41.942;24.220;2024-01-07T12:10:33;88053.44;;;9.21;67.50
22649;BME280;11491;41.942;24.220;2024-01-07T12:13:00;88039.34;;;9.53;67.77
22649;BME280;11491;41.942;24.220;2024-01-07T12:15:29;88028.28;;;10.01;66.59
22649;BME280;11491;41.942;24.220;2024-01-07T12:17:57;88032.53;;;10.97;64.59
22649;BME280;11491;41.942;24.220;2024-01-07T12:20:25;88027.13;;;11.08;61.68
22649;BME280;11491;41.942;24.220;2024-01-07T12:22:55;88030.50;;;10.28;64.33
22649;BME280;11491;41.942;24.220;2024-01-07T12:25:22;88026.69;;;10.22;65.17
22649;BME280;11491;41.942;24.220;2024-01-07T12:27:50;88029.66;;;10.52;64.90
22649;BME280;11491;41.942;24.220;2024-01-07T12:30:19;88024.97;;;10.78;64.04
22649;BME280;11491;41.942;24.220;2024-01-07T12:32:46;88030.28;;;10.85;64.19
22649;BME280;11491;41.942;24.220;2024-01-07T12:35:13;88019.19;;;11.50;62.18
22649;BME280;11491;41.942;24.220;2024-01-07T12:37:40;88021.16;;;11.98;59.79
22649;BME280;11491;41.942;24.220;2024-01-07T12:40:09;88020.50;;;12.24;57.86
22649;BME280;11491;41.942;24.220;2024-01-07T12:42:37;88026.19;;;12.64;58.02
22649;BME280;11491;41.942;24.220;2024-01-07T12:45:06;88016.72;;;12.56;58.73
22649;BME280;11491;41.942;24.220;2024-01-07T12:47:34;88030.06;;;12.25;57.29
22649;BME280;11491;41.942;24.220;2024-01-07T12:50:01;88034.50;;;11.53;60.10
22649;BME280;11491;41.942;24.220;2024-01-07T12:52:28;88024.28;;;10.67;63.34
22649;BME280;11491;41.942;24.220;2024-01-07T12:54:54;88032.41;;;10.31;65.08
22649;BME280;11491;41.942;24.220;2024-01-07T12:57:23;88030.50;;;10.35;64.43
22649;BME280;11491;41.942;24.220;2024-01-07T12:59:50;88034.41;;;9.77;65.62